sensor_id;sensor_type;location;lat;lon;timestamp;pressure;altitude;pressure_sealevel;temperature;humidity
42289;BME280;30230;47.520;19.016;2023-04-28T00:01:17;99581.81;;;6.07;61.95
42289;BME280;30230;47.520;19.016;2023-04-28T00:03:18;99580.78;;;5.99;62.71
42289;BME280;30230;47.520;19.016;2023-04-28T00:05:19;99587.66;;;5.94;62.47
42289;BME280;30230;47.520;19.016;2023-04-28T00:07:19;99578.78;;;5.93;63.02
42289;BME280;30230;47.520;19.016;2023-04-28T00:09:20;99583.81;;;5.96;62.87
42289;BME280;30230;47.520;19.016;2023-04-28T00:11:20;99585.50;;;5.97;62.01
42289;BME280;30230;47.520;19.016;2023-04-28T00:13:21;99583.66;;;5.98;61.81
42289;BME280;30230;47.520;19.016;2023-04-28T00:15:21;99581.66;;;6.00;61.19
42289;BME280;30230;47.520;19.016;2023-04-28T00:17:22;99578.97;;;6.00;61.97
42289;BME280;30230;47.520;19.016;2023-04-28T00:19:22;99575.94;;;5.95;61.21
42289;BME280;30230;47.520;19.016;2023-04-28T00:21:22;99578.78;;;5.93;60.37
42289;BME280;30230;47.520;19.016;2023-04-28T00:23:23;99571.56;;;5.94;62.17
42289;BME280;30230;47.520;19.016;2023-04-28T00:25:23;99570.59;;;5.95;61.59
42289;BME280;30230;47.520;19.016;2023-04-28T00:27:24;99578.78;;;6.02;60.59
42289;BME280;30230;47.520;19.016;2023-04-28T00:29:24;99583.50;;;6.08;60.03
42289;BME280;30230;47.520;19.016;2023-04-28T00:31:24;99582.81;;;6.06;61.99
42289;BME280;30230;47.520;19.016;2023-04-28T00:33:25;99584.81;;;6.04;60.74
42289;BME280;30230;47.520;19.016;2023-04-28T00:35:25;99579.97;;;5.99;61.45
42289;BME280;30230;47.520;19.016;2023-04-28T00:37:26;99582.28;;;5.94;63.13
42289;BME280;30230;47.520;19.016;2023-04-28T00:39:26;99581.09;;;5.88;66.32
42289;BME280;30230;47.520;19.016;2023-04-28T00:41:26;99584.13;;;5.85;66.23
42289;BME280;30230;47.520;19.016;2023-04-28T00:43:27;99586.09;;;5.83;66.75
42289;BME280;30230;47.520;19.016;2023-04-28T00:45:28;99576.41;;;5.74;65.87
42289;BME280;30230;47.520;19.016;2023-04-28T00:47:28;99581.41;;;5.69;68.31
42289;BME280;30230;47.520;19.016;2023-04-28T00:49:29;99582.22;;;5.61;68.56
42289;BME280;30230;47.520;19.016;2023-04-28T00:51:30;99585.03;;;5.52;69.39
42289;BME280;30230;47.520;19.016;2023-04-28T00:53:32;99583.53;;;5.49;68.65
42289;BME280;30230;47.520;19.016;2023-04-28T00:55:34;99587.84;;;5.42;69.46
42289;BME280;30230;47.520;19.016;2023-04-28T00:57:35;99593.06;;;5.43;71.68
42289;BME280;30230;47.520;19.016;2023-04-28T00:59:36;99600.09;;;5.44;69.63
42289;BME280;30230;47.520;19.016;2023-04-28T01:01:36;99598.91;;;5.39;70.77
42289;BME280;30230;47.520;19.016;2023-04-28T01:03:39;99601.41;;;5.40;71.12
42289;BME280;30230;47.520;19.016;2023-04-28T01:05:39;99592.19;;;5.35;71.75
42289;BME280;30230;47.520;19.016;2023-04-28T01:07:40;99588.31;;;5.29;72.85
42289;BME280;30230;47.520;19.016;2023-04-28T01:09:40;99589.81;;;5.23;71.66
42289;BME280;30230;47.520;19.016;2023-04-28T01:11:41;99601.19;;;5.17;72.74
42289;BME280;30230;47.520;19.016;2023-04-28T01:13:41;99597.78;;;5.07;73.31
42289;BME280;30230;47.520;19.016;2023-04-28T01:15:41;99595.88;;;5.00;74.32
42289;BME280;30230;47.520;19.016;2023-04-28T01:17:42;99595.22;;;4.97;73.01
42289;BME280;30230;47.520;19.016;2023-04-28T01:19:43;99593.84;;;4.93;72.08
42289;BME280;30230;47.520;19.016;2023-04-28T01:21:43;99591.13;;;4.85;72.19
42289;BME280;30230;47.520;19.016;2023-04-28T01:23:46;99593.44;;;4.80;72.24
42289;BME280;30230;47.520;19.016;2023-04-28T01:25:47;99599.16;;;4.85;70.51
42289;BME280;30230;47.520;19.016;2023-04-28T01:27:47;99600.13;;;4.76;70.31
42289;BME280;30230;47.520;19.016;2023-04-28T01:29:48;99600.44;;;4.73;71.13
42289;BME280;30230;47.520;19.016;2023-04-28T01:31:48;99608.47;;;4.73;72.14
42289;BME280;30230;47.520;19.016;2023-04-28T01:33:48;99604.75;;;4.66;72.93
42289;BME280;30230;47.520;19.016;2023-04-28T01:35:49;99590.66;;;4.64;74.57
42289;BME280;30230;47.520;19.016;2023-04-28T01:37:49;99596.34;;;4.61;74.30
42289;BME280;30230;47.520;19.016;2023-04-28T01:39:50;99593.69;;;4.61;74.10
42289;BME280;30230;47.520;19.016;2023-04-28T01:41:50;99594.13;;;4.56;75.23
42289;BME280;30230;47.520;19.016;2023-04-28T01:43:50;99587.50;;;4.60;74.27
42289;BME280;30230;47.520;19.016;2023-04-28T01:45:51;99590.66;;;4.64;74.98
42289;BME280;30230;47.520;19.016;2023-04-28T01:47:51;99582.53;;;4.74;74.09
42289;BME280;30230;47.520;19.016;2023-04-28T01:49:52;99587.72;;;4.75;75.65
42289;BME280;30230;47.520;19.016;2023-04-28T01:51:52;99585.56;;;4.79;75.04
42289;BME280;30230;47.520;19.016;2023-04-28T01:53:53;99580.56;;;4.76;75.30
42289;BME280;30230;47.520;19.016;2023-04-28T01:55:53;99588.81;;;4.64;75.52
42289;BME280;30230;47.520;19.016;2023-04-28T01:57:54;99583.47;;;4.64;75.65
42289;BME280;30230;47.520;19.016;2023-04-28T01:59:57;99588.00;;;4.64;75.18
42289;BME280;30230;47.520;19.016;2023-04-28T02:01:58;99583.44;;;4.56;75.38
42289;BME280;30230;47.520;19.016;2023-04-28T02:03:59;99585.41;;;4.54;74.64
42289;BME280;30230;47.520;19.016;2023-04-28T02:05:59;99594.28;;;4.55;74.93
42289;BME280;30230;47.520;19.016;2023-04-28T02:08:00;99595.66;;;4.59;74.21
42289;BME280;30230;47.520;19.016;2023-04-28T02:10:00;99594.34;;;4.63;73.34
42289;BME280;30230;47.520;19.016;2023-04-28T02:12:01;99594.88;;;4.66;73.51
42289;BME280;30230;47.520;19.016;2023-04-28T02:14:01;99597.38;;;4.68;72.70
42289;BME280;30230;47.520;19.016;2023-04-28T02:16:01;99594.03;;;4.66;73.79
42289;BME280;30230;47.520;19.016;2023-04-28T02:18:02;99587.88;;;4.74;73.57
42289;BME280;30230;47.520;19.016;2023-04-28T02:20:03;99599.13;;;4.77;72.67
42289;BME280;30230;47.520;19.016;2023-04-28T02:22:04;99592.09;;;4.76;72.82
42289;BME280;30230;47.520;19.016;2023-04-28T02:24:05;99592.56;;;4.72;74.95
42289;BME280;30230;47.520;19.016;2023-04-28T02:26:06;99598.38;;;4.67;74.25
42289;BME280;30230;47.520;19.016;2023-04-28T02:28:07;99597.19;;;4.61;73.27
42289;BME280;30230;47.520;19.016;2023-04-28T02:30:07;99597.50;;;4.58;73.07
42289;BME280;30230;47.520;19.016;2023-04-28T02:32:08;99598.31;;;4.59;74.45
42289;BME280;30230;47.520;19.016;2023-04-28T02:34:08;99598.13;;;4.52;74.14
42289;BME280;30230;47.520;19.016;2023-04-28T02:36:09;99592.59;;;4.54;72.29
42289;BME280;30230;47.520;19.016;2023-04-28T02:38:10;99600.88;;;4.60;71.02
42289;BME280;30230;47.520;19.016;2023-04-28T02:40:11;99599.53;;;4.64;71.65
42289;BME280;30230;47.520;19.016;2023-04-28T02:42:11;99599.69;;;4.63;74.99
42289;BME280;30230;47.520;19.016;2023-04-28T02:44:12;99608.72;;;4.62;73.98
42289;BME280;30230;47.520;19.016;2023-04-28T02:46:12;99597.44;;;4.50;74.57
42289;BME280;30230;47.520;19.016;2023-04-28T02:48:13;99599.97;;;4.52;73.63
42289;BME280;30230;47.520;19.016;2023-04-28T02:50:13;99599.41;;;4.48;74.71
42289;BME280;30230;47.520;19.016;2023-04-28T02:52:13;99600.25;;;4.49;74.55
42289;BME280;30230;47.520;19.016;2023-04-28T02:54:14;99598.28;;;4.51;74.95
42289;BME280;30230;47.520;19.016;2023-04-28T02:56:15;99595.75;;;4.49;73.48
42289;BME280;30230;47.520;19.016;2023-04-28T02:58:15;99602.63;;;4.52;73.67
42289;BME280;30230;47.520;19.016;2023-04-28T03:00:17;99601.78;;;4.51;72.78
42289;BME280;30230;47.520;19.016;2023-04-28T03:02:17;99599.41;;;4.48;72.79
42289;BME280;30230;47.520;19.016;2023-04-28T03:04:19;99599.22;;;4.41;74.23
42289;BME280;30230;47.520;19.016;2023-04-28T03:06:20;99599.50;;;4.38;75.09
42289;BME280;30230;47.520;19.016;2023-04-28T03:08:20;99611.22;;;4.37;73.30
42289;BME280;30230;47.520;19.016;2023-04-28T03:10:21;99603.53;;;4.34;73.74
42289;BME280;30230;47.520;19.016;2023-04-28T03:12:21;99602.81;;;4.32;75.41
42289;BME280;30230;47.520;19.016;2023-04-28T03:14:22;99611.53;;;4.34;75.82
42289;BME280;30230;47.520;19.016;2023-04-28T03:16:22;99610.53;;;4.35;74.07
42289;BME280;30230;47.520;19.016;2023-04-28T03:18:23;99605.19;;;4.35;73.30
42289;BME280;30230;47.520;19.016;2023-04-28T03:20:23;99613.38;;;4.60;73.60
42289;BME280;30230;47.520;19.016;2023-04-28T03:22:23;99616.38;;;4.57;71.91
42289;BME280;30230;47.520;19.016;2023-04-28T03:24:24;99611.91;;;4.39;74.96
42289;BME280;30230;47.520;19.016;2023-04-28T03:26:24;99614.22;;;4.34;74.51
42289;BME280;30230;47.520;19.016;2023-04-28T03:28:25;99610.22;;;4.38;73.00
42289;BME280;30230;47.520;19.016;2023-04-28T03:30:25;99609.06;;;4.41;73.58
42289;BME280;30230;47.520;19.016;2023-04-28T03:32:26;99609.63;;;4.44;71.63
42289;BME280;30230;47.520;19.016;2023-04-28T03:34:26;99610.66;;;4.52;74.18
42289;BME280;30230;47.520;19.016;2023-04-28T03:36:27;99600.59;;;4.46;72.73
42289;BME280;30230;47.520;19.016;2023-04-28T03:38:27;99614.97;;;4.44;73.08
42289;BME280;30230;47.520;19.016;2023-04-28T03:40:28;99615.81;;;4.45;72.20
42289;BME280;30230;47.520;19.016;2023-04-28T03:42:28;99614.97;;;4.44;72.91
42289;BME280;30230;47.520;19.016;2023-04-28T03:44:29;99602.91;;;4.40;74.28
42289;BME280;30230;47.520;19.016;2023-04-28T03:46:29;99607.03;;;4.35;74.70
42289;BME280;30230;47.520;19.016;2023-04-28T03:48:30;99608.63;;;4.28;74.79
42289;BME280;30230;47.520;19.016;2023-04-28T03:50:30;99604.91;;;4.21;75.71
42289;BME280;30230;47.520;19.016;2023-04-28T03:52:31;99620.09;;;4.20;75.88
42289;BME280;30230;47.520;19.016;2023-04-28T03:54:31;99614.06;;;4.18;76.18
42289;BME280;30230;47.520;19.016;2023-04-28T03:56:32;99617.09;;;4.23;75.00
42289;BME280;30230;47.520;19.016;2023-04-28T03:58:33;99625.00;;;4.25;74.81
42289;BME280;30230;47.520;19.016;2023-04-28T04:00:33;99617.66;;;4.27;75.52
42289;BME280;30230;47.520;19.016;2023-04-28T04:02:33;99623.38;;;4.32;74.15
42289;BME280;30230;47.520;19.016;2023-04-28T04:04:34;99622.66;;;4.48;72.25
42289;BME280;30230;47.520;19.016;2023-04-28T04:06:34;99616.31;;;4.49;72.78
42289;BME280;30230;47.520;19.016;2023-04-28T04:08:35;99625.16;;;4.49;76.15
42289;BME280;30230;47.520;19.016;2023-04-28T04:10:35;99626.00;;;4.50;75.52
42289;BME280;30230;47.520;19.016;2023-04-28T04:12:36;99612.34;;;4.53;74.93
42289;BME280;30230;47.520;19.016;2023-04-28T04:14:36;99623.41;;;4.58;73.43
42289;BME280;30230;47.520;19.016;2023-04-28T04:16:36;99618.88;;;4.58;74.82
42289;BME280;30230;47.520;19.016;2023-04-28T04:18:37;99626.63;;;4.61;75.39
42289;BME280;30230;47.520;19.016;2023-04-28T04:20:37;99628.50;;;4.69;74.93
42289;BME280;30230;47.520;19.016;2023-04-28T04:22:38;99625.88;;;4.77;73.10
42289;BME280;30230;47.520;19.016;2023-04-28T04:24:38;99621.72;;;4.83;73.37
42289;BME280;30230;47.520;19.016;2023-04-28T04:26:38;99630.78;;;4.90;74.02
42289;BME280;30230;47.520;19.016;2023-04-28T04:28:39;99625.50;;;4.98;73.79
42289;BME280;30230;47.520;19.016;2023-04-28T04:30:39;99630.75;;;5.08;73.39
42289;BME280;30230;47.520;19.016;2023-04-28T04:32:40;99630.78;;;5.16;73.28
42289;BME280;30230;47.520;19.016;2023-04-28T04:34:40;99621.59;;;5.18;73.47
42289;BME280;30230;47.520;19.016;2023-04-28T04:36:40;99632.19;;;5.28;73.70
42289;BME280;30230;47.520;19.016;2023-04-28T04:38:41;99628.16;;;5.32;73.17
42289;BME280;30230;47.520;19.016;2023-04-28T04:40:41;99626.88;;;5.44;72.73
42289;BME280;30230;47.520;19.016;2023-04-28T04:42:41;99621.19;;;5.47;72.71
42289;BME280;30230;47.520;19.016;2023-04-28T04:44:42;99630.28;;;5.55;72.31
42289;BME280;30230;47.520;19.016;2023-04-28T04:46:42;99634.97;;;5.61;72.04
42289;BME280;30230;47.520;19.016;2023-04-28T04:48:43;99636.81;;;5.68;72.15
42289;BME280;30230;47.520;19.016;2023-04-28T04:50:43;99636.03;;;5.76;73.28
42289;BME280;30230;47.520;19.016;2023-04-28T04:52:44;99631.00;;;5.81;72.87
42289;BME280;30230;47.520;19.016;2023-04-28T04:54:44;99640.75;;;5.90;72.59
42289;BME280;30230;47.520;19.016;2023-04-28T04:56:45;99634.94;;;5.95;72.64
42289;BME280;30230;47.520;19.016;2023-04-28T04:58:45;99632.59;;;6.00;72.09
42289;BME280;30230;47.520;19.016;2023-04-28T05:00:47;99627.72;;;6.04;71.85
42289;BME280;30230;47.520;19.016;2023-04-28T05:02:47;99633.13;;;6.12;70.40
42289;BME280;30230;47.520;19.016;2023-04-28T05:04:47;99633.78;;;6.22;68.84
42289;BME280;30230;47.520;19.016;2023-04-28T05:06:48;99636.28;;;6.56;62.38
42289;BME280;30230;47.520;19.016;2023-04-28T05:08:48;99637.16;;;6.57;61.86
42289;BME280;30230;47.520;19.016;2023-04-28T05:10:48;99638.97;;;6.56;62.67
42289;BME280;30230;47.520;19.016;2023-04-28T05:12:49;99634.63;;;6.55;65.10
42289;BME280;30230;47.520;19.016;2023-04-28T05:14:50;99635.97;;;6.59;65.39
42289;BME280;30230;47.520;19.016;2023-04-28T05:16:50;99635.63;;;6.62;64.73
42289;BME280;30230;47.520;19.016;2023-04-28T05:18:52;99643.50;;;6.72;65.50
42289;BME280;30230;47.520;19.016;2023-04-28T05:20:52;99634.50;;;7.20;88.38
42289;BME280;30230;47.520;19.016;2023-04-28T05:22:52;99639.19;;;7.18;67.62
42289;BME280;30230;47.520;19.016;2023-04-28T05:24:53;99637.69;;;7.24;68.03
42289;BME280;30230;47.520;19.016;2023-04-28T05:26:57;99643.22;;;7.22;65.89
42289;BME280;30230;47.520;19.016;2023-04-28T05:28:57;99643.41;;;7.21;64.22
42289;BME280;30230;47.520;19.016;2023-04-28T05:30:58;99643.59;;;7.19;62.88
42289;BME280;30230;47.520;19.016;2023-04-28T05:32:58;99645.53;;;7.34;62.35
42289;BME280;30230;47.520;19.016;2023-04-28T05:34:58;99648.50;;;7.47;60.59
42289;BME280;30230;47.520;19.016;2023-04-28T05:36:59;99638.66;;;7.39;61.27
42289;BME280;30230;47.520;19.016;2023-04-28T05:38:59;99644.63;;;7.49;62.65
42289;BME280;30230;47.520;19.016;2023-04-28T05:41:01;99628.22;;;7.44;62.61
42289;BME280;30230;47.520;19.016;2023-04-28T05:43:01;99647.88;;;7.76;61.33
42289;BME280;30230;47.520;19.016;2023-04-28T05:45:01;99641.13;;;7.80;61.50
42289;BME280;30230;47.520;19.016;2023-04-28T05:47:02;99647.81;;;7.84;60.68
42289;BME280;30230;47.520;19.016;2023-04-28T05:49:02;99639.66;;;8.00;57.46
42289;BME280;30230;47.520;19.016;2023-04-28T05:51:03;99646.25;;;7.98;59.39
42289;BME280;30230;47.520;19.016;2023-04-28T05:53:03;99648.25;;;7.96;59.27
42289;BME280;30230;47.520;19.016;2023-04-28T05:55:04;99650.59;;;7.99;58.67
42289;BME280;30230;47.520;19.016;2023-04-28T05:57:05;99653.47;;;7.97;56.37
42289;BME280;30230;47.520;19.016;2023-04-28T05:59:06;99653.38;;;8.14;56.14
42289;BME280;30230;47.520;19.016;2023-04-28T06:01:07;99654.31;;;8.21;55.34
42289;BME280;30230;47.520;19.016;2023-04-28T06:03:07;99653.38;;;8.14;56.53
42289;BME280;30230;47.520;19.016;2023-04-28T06:05:10;99663.41;;;8.20;55.93
42289;BME280;30230;47.520;19.016;2023-04-28T06:07:10;99657.25;;;8.34;53.81
42289;BME280;30230;47.520;19.016;2023-04-28T06:09:10;99652.75;;;8.26;56.33
42289;BME280;30230;47.520;19.016;2023-04-28T06:11:11;99660.47;;;8.29;56.20
42289;BME280;30230;47.520;19.016;2023-04-28T06:13:11;99666.16;;;8.34;55.47
42289;BME280;30230;47.520;19.016;2023-04-28T06:15:12;99653.97;;;8.47;56.02
42289;BME280;30230;47.520;19.016;2023-04-28T06:17:12;99662.88;;;8.70;59.82
42289;BME280;30230;47.520;19.016;2023-04-28T06:19:13;99652.88;;;8.79;55.72
42289;BME280;30230;47.520;19.016;2023-04-28T06:21:15;99663.25;;;9.05;51.21
42289;BME280;30230;47.520;19.016;2023-04-28T06:23:16;99664.34;;;9.10;50.70
42289;BME280;30230;47.520;19.016;2023-04-28T06:25:16;99664.06;;;9.05;52.09
42289;BME280;30230;47.520;19.016;2023-04-28T06:27:17;99657.47;;;9.08;52.18
42289;BME280;30230;47.520;19.016;2023-04-28T06:29:17;99660.44;;;9.13;54.08
42289;BME280;30230;47.520;19.016;2023-04-28T06:31:19;99660.09;;;9.16;54.68
42289;BME280;30230;47.520;19.016;2023-04-28T06:33:20;99658.88;;;9.19;55.65
42289;BME280;30230;47.520;19.016;2023-04-28T06:35:21;99668.00;;;9.32;53.99
42289;BME280;30230;47.520;19.016;2023-04-28T06:37:21;99661.66;;;9.40;52.92
42289;BME280;30230;47.520;19.016;2023-04-28T06:39:22;99659.44;;;9.44;52.73
42289;BME280;30230;47.520;19.016;2023-04-28T06:41:22;99653.41;;;9.27;52.67
42289;BME280;30230;47.520;19.016;2023-04-28T06:43:23;99657.13;;;9.26;53.92
42289;BME280;30230;47.520;19.016;2023-04-28T06:45:23;99665.56;;;9.37;54.03
42289;BME280;30230;47.520;19.016;2023-04-28T06:47:24;99664.81;;;9.58;52.82
42289;BME280;30230;47.520;19.016;2023-04-28T06:49:24;99660.91;;;9.61;53.11
42289;BME280;30230;47.520;19.016;2023-04-28T06:51:25;99669.84;;;9.61;52.14
42289;BME280;30230;47.520;19.016;2023-04-28T06:53:25;99667.22;;;9.68;53.09
42289;BME280;30230;47.520;19.016;2023-04-28T06:55:26;99664.97;;;9.72;53.36
42289;BME280;30230;47.520;19.016;2023-04-28T06:57:26;99664.59;;;9.75;53.84
42289;BME280;30230;47.520;19.016;2023-04-28T06:59:27;99668.13;;;9.90;51.71
42289;BME280;30230;47.520;19.016;2023-04-28T07:01:28;99658.22;;;9.97;54.95
42289;BME280;30230;47.520;19.016;2023-04-28T07:03:28;99664.28;;;9.99;52.29
42289;BME280;30230;47.520;19.016;2023-04-28T07:05:29;99657.59;;;9.95;51.70
42289;BME280;30230;47.520;19.016;2023-04-28T07:07:29;99649.22;;;9.90;51.50
42289;BME280;30230;47.520;19.016;2023-04-28T07:09:30;99660.38;;;9.87;52.64
42289;BME280;30230;47.520;19.016;2023-04-28T07:11:30;99655.00;;;9.87;52.62
42289;BME280;30230;47.520;19.016;2023-04-28T07:13:32;99651.94;;;9.90;52.93
42289;BME280;30230;47.520;19.016;2023-04-28T07:15:33;99657.03;;;10.21;50.97
42289;BME280;30230;47.520;19.016;2023-04-28T07:17:33;99654.00;;;10.67;50.84
42289;BME280;30230;47.520;19.016;2023-04-28T07:19:34;99653.03;;;11.03;50.57
42289;BME280;30230;47.520;19.016;2023-04-28T07:21:34;99649.28;;;11.04;50.44
42289;BME280;30230;47.520;19.016;2023-04-28T07:23:35;99651.13;;;10.97;51.11
42289;BME280;30230;47.520;19.016;2023-04-28T07:25:37;99652.25;;;10.81;49.50
42289;BME280;30230;47.520;19.016;2023-04-28T07:27:39;99657.53;;;10.67;49.04
42289;BME280;30230;47.520;19.016;2023-04-28T07:29:40;99651.59;;;10.79;49.90
42289;BME280;30230;47.520;19.016;2023-04-28T07:31:41;99650.66;;;10.93;53.13
42289;BME280;30230;47.520;19.016;2023-04-28T07:33:41;99650.47;;;10.94;52.15
42289;BME280;30230;47.520;19.016;2023-04-28T07:35:42;99638.44;;;10.97;52.96
42289;BME280;30230;47.520;19.016;2023-04-28T07:37:42;99650.13;;;11.04;51.50
42289;BME280;30230;47.520;19.016;2023-04-28T07:39:43;99639.75;;;11.08;52.06
42289;BME280;30230;47.520;19.016;2023-04-28T07:41:43;99653.31;;;11.14;51.14
42289;BME280;30230;47.520;19.016;2023-04-28T07:43:44;99646.69;;;11.17;51.98
42289;BME280;30230;47.520;19.016;2023-04-28T07:45:44;99655.88;;;11.23;51.65
42289;BME280;30230;47.520;19.016;2023-04-28T07:47:47;99647.19;;;11.34;49.01
42289;BME280;30230;47.520;19.016;2023-04-28T07:49:48;99643.47;;;11.41;47.95
42289;BME280;30230;47.520;19.016;2023-04-28T07:51:48;99644.16;;;11.50;49.38
42289;BME280;30230;47.520;19.016;2023-04-28T07:53:50;99640.81;;;11.48;49.94
42289;BME280;30230;47.520;19.016;2023-04-28T07:55:51;99635.06;;;11.64;49.95
42289;BME280;30230;47.520;19.016;2023-04-28T07:57:52;99632.50;;;11.84;48.68
42289;BME280;30230;47.520;19.016;2023-04-28T07:59:52;99619.31;;;11.74;45.84
42289;BME280;30230;47.520;19.016;2023-04-28T08:01:53;99623.16;;;12.00;45.85
42289;BME280;30230;47.520;19.016;2023-04-28T08:03:54;99622.81;;;12.43;44.49
42289;BME280;30230;47.520;19.016;2023-04-28T08:05:54;99610.09;;;12.76;48.25
42289;BME280;30230;47.520;19.016;2023-04-28T08:07:55;99609.84;;;13.11;44.14
42289;BME280;30230;47.520;19.016;2023-04-28T08:09:55;99600.69;;;13.25;40.83
42289;BME280;30230;47.520;19.016;2023-04-28T08:11:55;99592.97;;;13.29;40.28
42289;BME280;30230;47.520;19.016;2023-04-28T08:13:58;99594.81;;;13.35;41.84
42289;BME280;30230;47.520;19.016;2023-04-28T08:16:02;99604.34;;;13.51;44.10
42289;BME280;30230;47.520;19.016;2023-04-28T08:18:02;99598.84;;;13.64;44.62
42289;BME280;30230;47.520;19.016;2023-04-28T08:20:03;99586.28;;;13.76;41.04
42289;BME280;30230;47.520;19.016;2023-04-28T08:22:05;99590.69;;;14.09;43.63
42289;BME280;30230;47.520;19.016;2023-04-28T08:24:06;99596.94;;;14.41;43.06
42289;BME280;30230;47.520;19.016;2023-04-28T08:26:07;99585.53;;;14.64;40.14
42289;BME280;30230;47.520;19.016;2023-04-28T08:28:07;99582.91;;;14.76;41.63
42289;BME280;30230;47.520;19.016;2023-04-28T08:30:08;99575.66;;;14.88;41.55
42289;BME280;30230;47.520;19.016;2023-04-28T08:32:09;99572.28;;;14.93;36.05
42289;BME280;30230;47.520;19.016;2023-04-28T08:34:10;99573.53;;;15.15;39.28
42289;BME280;30230;47.520;19.016;2023-04-28T08:36:10;99572.31;;;15.48;40.71
42289;BME280;30230;47.520;19.016;2023-04-28T08:38:17;99567.09;;;15.65;38.46
42289;BME280;30230;47.520;19.016;2023-04-28T08:40:18;99569.41;;;15.79;36.61
42289;BME280;30230;47.520;19.016;2023-04-28T08:42:18;99568.50;;;15.85;34.25
42289;BME280;30230;47.520;19.016;2023-04-28T08:44:19;99572.13;;;15.98;37.32
42289;BME280;30230;47.520;19.016;2023-04-28T08:46:20;99574.63;;;16.11;33.86
42289;BME280;30230;47.520;19.016;2023-04-28T08:48:21;99562.06;;;15.80;34.76
42289;BME280;30230;47.520;19.016;2023-04-28T08:50:22;99564.91;;;15.73;33.08
42289;BME280;30230;47.520;19.016;2023-04-28T08:52:25;99572.13;;;15.79;33.05
42289;BME280;30230;47.520;19.016;2023-04-28T08:54:30;99561.69;;;15.76;33.05
42289;BME280;30230;47.520;19.016;2023-04-28T08:56:32;99541.91;;;15.51;33.44
42289;BME280;30230;47.520;19.016;2023-04-28T08:58:35;99568.50;;;15.85;31.79
42289;BME280;30230;47.520;19.016;2023-04-28T09:00:38;99566.00;;;15.84;34.29
42289;BME280;30230;47.520;19.016;2023-04-28T09:02:39;99564.66;;;16.05;35.15
42289;BME280;30230;47.520;19.016;2023-04-28T09:04:41;99572.78;;;16.23;37.45
42289;BME280;30230;47.520;19.016;2023-04-28T09:06:41;99569.94;;;16.18;32.78
42289;BME280;30230;47.520;19.016;2023-04-28T09:08:42;99567.59;;;16.33;31.62
42289;BME280;30230;47.520;19.016;2023-04-28T09:10:42;99571.22;;;16.27;30.80
42289;BME280;30230;47.520;19.016;2023-04-28T09:12:43;99569.84;;;16.36;29.70
42289;BME280;30230;47.520;19.016;2023-04-28T09:14:44;99562.03;;;16.52;31.42
42289;BME280;30230;47.520;19.016;2023-04-28T09:16:44;99563.50;;;16.54;30.37
42289;BME280;30230;47.520;19.016;2023-04-28T09:18:55;99562.22;;;16.80;30.56
42289;BME280;30230;47.520;19.016;2023-04-28T09:21:07;99565.06;;;16.74;28.09
42289;BME280;30230;47.520;19.016;2023-04-28T09:23:16;99555.19;;;16.61;29.98
42289;BME280;30230;47.520;19.016;2023-04-28T09:25:18;99571.19;;;16.57;28.40
42289;BME280;30230;47.520;19.016;2023-04-28T09:27:27;99568.91;;;16.42;29.98
42289;BME280;30230;47.520;19.016;2023-04-28T09:29:29;99565.06;;;16.20;31.02
42289;BME280;30230;47.520;19.016;2023-04-28T09:31:29;99569.41;;;16.09;32.88
42289;BME280;30230;47.520;19.016;2023-04-28T09:33:30;99566.88;;;15.96;31.54
42289;BME280;30230;47.520;19.016;2023-04-28T09:35:40;99564.53;;;16.00;32.10
42289;BME280;30230;47.520;19.016;2023-04-28T09:37:41;99566.03;;;15.96;32.87
42289;BME280;30230;47.520;19.016;2023-04-28T09:39:44;99562.78;;;16.17;32.42
42289;BME280;30230;47.520;19.016;2023-04-28T09:41:44;99561.13;;;16.16;33.30
42289;BME280;30230;47.520;19.016;2023-04-28T09:43:45;99547.88;;;16.20;31.79
42289;BME280;30230;47.520;19.016;2023-04-28T09:45:46;99556.31;;;16.18;34.36
42289;BME280;30230;47.520;19.016;2023-04-28T09:47:46;99550.50;;;16.26;34.16
42289;BME280;30230;47.520;19.016;2023-04-28T09:49:57;99538.91;;;16.42;30.94
42289;BME280;30230;47.520;19.016;2023-04-28T09:52:12;99530.41;;;16.51;31.45
42289;BME280;30230;47.520;19.016;2023-04-28T09:54:13;99538.31;;;16.40;33.56
42289;BME280;30230;47.520;19.016;2023-04-28T09:56:14;99540.47;;;16.62;32.13
42289;BME280;30230;47.520;19.016;2023-04-28T09:58:19;99545.00;;;16.80;33.25
42289;BME280;30230;47.520;19.016;2023-04-28T10:00:21;99535.84;;;16.62;30.31
42289;BME280;30230;47.520;19.016;2023-04-28T10:02:23;99535.72;;;16.69;31.55
42289;BME280;30230;47.520;19.016;2023-04-28T10:04:24;99532.03;;;16.63;33.27
42289;BME280;30230;47.520;19.016;2023-04-28T10:06:26;99518.78;;;17.02;31.64
42289;BME280;30230;47.520;19.016;2023-04-28T10:08:27;99524.25;;;17.54;30.80
42289;BME280;30230;47.520;19.016;2023-04-28T10:10:28;99516.09;;;17.71;29.17
42289;BME280;30230;47.520;19.016;2023-04-28T10:12:29;99514.38;;;17.13;30.57
42289;BME280;30230;47.520;19.016;2023-04-28T10:14:30;99513.22;;;17.49;29.23
42289;BME280;30230;47.520;19.016;2023-04-28T10:16:31;99514.28;;;17.88;30.31
42289;BME280;30230;47.520;19.016;2023-04-28T10:18:32;99504.13;;;18.34;28.72
42289;BME280;30230;47.520;19.016;2023-04-28T10:20:34;99500.06;;;18.54;29.01
42289;BME280;30230;47.520;19.016;2023-04-28T10:25:17;99495.50;;;18.76;28.47
42289;BME280;30230;47.520;19.016;2023-04-28T10:27:28;99488.78;;;19.06;29.54
42289;BME280;30230;47.520;19.016;2023-04-28T10:29:31;99483.75;;;19.41;30.28
42289;BME280;30230;47.520;19.016;2023-04-28T10:31:32;99482.53;;;18.88;28.34
42289;BME280;30230;47.520;19.016;2023-04-28T10:33:34;99473.22;;;19.28;27.61
42289;BME280;30230;47.520;19.016;2023-04-28T10:40:39;99466.88;;;19.06;27.38
42289;BME280;30230;47.520;19.016;2023-04-28T10:42:55;99466.00;;;19.00;28.86
42289;BME280;30230;47.520;19.016;2023-04-28T10:44:55;99462.88;;;19.35;26.88
42289;BME280;30230;47.520;19.016;2023-04-28T10:47:06;99468.13;;;18.59;27.88